createdAt,value
2023-02-23T00:05:16.542Z,101048.91
2023-02-23T00:15:17.777Z,101051.25
2023-02-23T00:25:19.017Z,101047.97
2023-02-23T00:35:20.327Z,101042.56
2023-02-23T00:45:21.594Z,101046.56
2023-02-23T00:55:22.864Z,101038.50
2023-02-23T01:05:24.110Z,101047.91
2023-02-23T01:15:25.372Z,101039.06
2023-02-23T01:25:26.634Z,101052.88
2023-02-23T01:35:27.883Z,101047.84
2023-02-23T01:45:29.192Z,101051.19
2023-02-23T01:55:30.451Z,101050.97
2023-02-23T02:05:31.694Z,101059.72
2023-02-23T02:15:32.925Z,101064.84
2023-02-23T02:25:34.141Z,101063.84
2023-02-23T02:35:35.394Z,101060.28
2023-02-23T02:45:36.657Z,101064.56
2023-02-23T02:55:37.936Z,101062.84
2023-02-23T03:05:39.184Z,101062.84
2023-02-23T03:15:40.592Z,101059.34
2023-02-23T03:25:41.930Z,101066.88
2023-02-23T03:35:43.147Z,101065.91
2023-02-23T03:45:44.412Z,101071.19
2023-02-23T03:55:45.747Z,101078.06
2023-02-23T04:05:47.031Z,101085.72
2023-02-23T04:15:48.281Z,101085.19
2023-02-23T04:25:49.546Z,101092.13
2023-02-23T04:35:50.812Z,101097.09
2023-02-23T04:45:52.114Z,101102.38
2023-02-23T04:55:53.387Z,101102.34
2023-02-23T05:05:54.671Z,101110.06
2023-02-23T05:15:55.995Z,101111.97
2023-02-23T05:25:57.243Z,101112.81
2023-02-23T05:35:58.488Z,101121.81
2023-02-23T05:45:59.788Z,101133.56
2023-02-23T05:56:01.029Z,101130.38
2023-02-23T06:06:02.265Z,101134.63
2023-02-23T06:16:03.596Z,101139.28
2023-02-23T06:26:04.861Z,101146.81
2023-02-23T06:36:06.177Z,101158.41
2023-02-23T06:46:07.411Z,101172.16
2023-02-23T06:56:10.119Z,101173.94
2023-02-23T07:06:12.300Z,101174.94
2023-02-23T07:16:13.584Z,101200.16
2023-02-23T07:26:14.981Z,101220.25
2023-02-23T07:36:16.537Z,101222.94
2023-02-23T07:46:17.981Z,101236.84
2023-02-23T07:56:19.595Z,101263.03
2023-02-23T08:06:20.866Z,101265.66
2023-02-23T08:16:22.184Z,101277.00
2023-02-23T08:26:23.595Z,101281.44
2023-02-23T08:36:25.146Z,101289.28
2023-02-23T08:46:32.984Z,101299.91
2023-02-23T08:56:40.920Z,101315.84
2023-02-23T09:06:49.927Z,101315.97
2023-02-23T09:16:57.946Z,101336.91
2023-02-23T09:27:06.753Z,101342.81
2023-02-23T09:37:14.967Z,101356.81
2023-02-23T09:47:22.949Z,101354.25
2023-02-23T09:57:30.917Z,101358.47
2023-02-23T10:07:38.949Z,101369.66
2023-02-23T10:17:47.942Z,101366.16
2023-02-23T10:27:55.937Z,101370.69
2023-02-23T10:38:03.944Z,101361.84
2023-02-23T10:48:11.973Z,101374.03
2023-02-23T10:58:20.958Z,101376.72
2023-02-23T11:08:28.999Z,101374.06
2023-02-23T11:18:36.998Z,101375.03
2023-02-23T11:28:45.016Z,101385.41
2023-02-23T11:38:53.901Z,101378.41
2023-02-23T11:49:01.936Z,101376.72
2023-02-23T11:59:09.988Z,101379.34
2023-02-23T12:09:17.964Z,101369.75
2023-02-23T12:19:26.994Z,101349.63
2023-02-23T12:29:34.996Z,101350.56
2023-02-23T12:39:43.003Z,101349.72
2023-02-23T12:49:51.935Z,101358.47
2023-02-23T12:59:59.975Z,101358.31
2023-02-23T13:10:08.948Z,101357.59
2023-02-23T13:20:16.951Z,101362.78
2023-02-23T13:30:24.971Z,101362.94
2023-02-23T13:40:33.022Z,101362.97
2023-02-23T13:50:41.023Z,101376.09
2023-02-23T14:00:49.004Z,101377.19
2023-02-23T14:10:57.988Z,101371.91
2023-02-23T14:21:06.008Z,101381.50
2023-02-23T14:31:14.214Z,101390.22
2023-02-23T14:41:22.873Z,101379.84
2023-02-23T14:51:31.173Z,101386.94
2023-02-23T15:01:42.080Z,101384.16
2023-02-23T15:11:47.271Z,101379.97
2023-02-23T15:21:56.013Z,101379.97
2023-02-23T15:32:04.059Z,101379.22
2023-02-23T15:42:11.992Z,101390.72
2023-02-23T15:52:19.981Z,101380.22
2023-02-23T16:02:30.009Z,101390.75
2023-02-23T16:12:38.038Z,101390.75
2023-02-23T16:22:46.083Z,101396.88
2023-02-23T16:32:54.101Z,101393.63
2023-02-23T16:42:55.466Z,101399.59
2023-02-23T16:52:57.309Z,101400.56
2023-02-23T17:02:58.708Z,101401.44
2023-02-23T17:13:00.021Z,101401.34
2023-02-23T17:23:01.542Z,101403.28
2023-02-23T17:33:04.227Z,101415.19
2023-02-23T17:43:05.829Z,101416.63
2023-02-23T17:53:07.210Z,101418.06
2023-02-23T18:03:08.632Z,101411.22
2023-02-23T18:13:10.145Z,101429.19
2023-02-23T18:23:11.507Z,101424.94
2023-02-23T18:33:13.268Z,101438.25
2023-02-23T18:43:14.601Z,101445.13
2023-02-23T18:53:16.105Z,101460.81
2023-02-23T19:03:17.361Z,101458.13
2023-02-23T19:13:18.766Z,101465.13
2023-02-23T19:23:20.149Z,101474.09
2023-02-23T19:33:21.530Z,101480.00
2023-02-23T19:43:23.127Z,101490.63
2023-02-23T19:53:24.649Z,101489.91
2023-02-23T20:03:26.039Z,101478.69
2023-02-23T20:23:58.296Z,101493.09
2023-02-23T20:34:01.406Z,101496.66
2023-02-23T20:44:02.702Z,101491.44
2023-02-23T20:54:03.948Z,101474.91
2023-02-23T21:04:05.467Z,101478.25
2023-02-23T21:14:06.878Z,101473.16
2023-02-23T21:24:08.122Z,101469.78
2023-02-23T21:34:09.635Z,101456.03
2023-02-23T21:44:11.010Z,101456.75
2023-02-23T21:54:12.250Z,101462.91
2023-02-23T22:04:13.503Z,101462.03
2023-02-23T22:14:14.754Z,101469.97
2023-02-23T22:24:16.103Z,101468.25
2023-02-23T22:34:17.679Z,101470.84
2023-02-23T22:44:19.023Z,101476.22
2023-02-23T22:54:20.710Z,101465.53
2023-02-23T23:04:22.182Z,101462.91
2023-02-23T23:14:23.631Z,101450.97
2023-02-23T23:24:24.921Z,101450.84
2023-02-23T23:34:26.224Z,101438.66
2023-02-23T23:44:27.482Z,101414.22
2023-02-23T23:54:28.764Z,101402.06
